sensor_id;sensor_type;location;lat;lon;timestamp;pressure;altitude;pressure_sealevel;temperature;humidity
31082;BME280;17737;52.586;13.284;2023-01-25T00:01:50;103411.19;;;1.12;77.99
31082;BME280;17737;52.586;13.284;2023-01-25T00:04:18;103396.72;;;1.24;77.91
31082;BME280;17737;52.586;13.284;2023-01-25T00:06:47;103387.28;;;1.14;78.16
31082;BME280;17737;52.586;13.284;2023-01-25T00:09:15;103392.97;;;1.00;78.54
31082;BME280;17737;52.586;13.284;2023-01-25T00:11:44;103382.31;;;1.02;78.64
31082;BME280;17737;52.586;13.284;2023-01-25T00:14:15;103375.63;;;1.18;78.09
31082;BME280;17737;52.586;13.284;2023-01-25T00:16:43;103374.81;;;1.16;78.43
31082;BME280;17737;52.586;13.284;2023-01-25T00:19:13;103361.22;;;1.27;77.52
31082;BME280;17737;52.586;13.284;2023-01-25T00:21:41;103367.56;;;1.23;78.01
31082;BME280;17737;52.586;13.284;2023-01-25T00:24:09;103358.19;;;1.09;78.66
31082;BME280;17737;52.586;13.284;2023-01-25T00:26:41;103344.91;;;1.09;78.77
31082;BME280;17737;52.586;13.284;2023-01-25T00:29:11;103349.13;;;1.16;78.81
31082;BME280;17737;52.586;13.284;2023-01-25T00:31:48;103333.91;;;1.51;77.43
31082;BME280;17737;52.586;13.284;2023-01-25T00:34:45;103327.72;;;1.50;76.76
31082;BME280;17737;52.586;13.284;2023-01-25T00:37:34;103319.56;;;1.29;77.57
31082;BME280;17737;52.586;13.284;2023-01-25T00:40:04;103316.06;;;1.27;77.71
31082;BME280;17737;52.586;13.284;2023-01-25T00:42:33;103307.38;;;1.21;78.12
31082;BME280;17737;52.586;13.284;2023-01-25T00:45:01;103299.50;;;1.18;78.33
31082;BME280;17737;52.586;13.284;2023-01-25T00:47:31;103293.38;;;1.16;78.73
31082;BME280;17737;52.586;13.284;2023-01-25T00:50:00;103288.84;;;1.20;78.71
31082;BME280;17737;52.586;13.284;2023-01-25T00:52:28;103290.81;;;1.13;78.48
31082;BME280;17737;52.586;13.284;2023-01-25T00:54:56;103284.78;;;1.08;78.91
31082;BME280;17737;52.586;13.284;2023-01-25T00:57:24;103291.50;;;1.20;79.35
31082;BME280;17737;52.586;13.284;2023-01-25T00:59:52;103291.59;;;1.17;79.30
31082;BME280;17737;52.586;13.284;2023-01-25T01:02:20;103295.81;;;1.24;79.43
31082;BME280;17737;52.586;13.284;2023-01-25T01:04:48;103295.56;;;1.32;79.50
31082;BME280;17737;52.586;13.284;2023-01-25T01:07:17;103315.44;;;1.18;80.04
31082;BME280;17737;52.586;13.284;2023-01-25T01:09:45;103325.38;;;1.12;80.27
31082;BME280;17737;52.586;13.284;2023-01-25T01:12:14;103312.59;;;1.24;79.08
31082;BME280;17737;52.586;13.284;2023-01-25T01:14:41;103311.84;;;1.19;79.48
31082;BME280;17737;52.586;13.284;2023-01-25T01:17:09;103312.72;;;1.20;79.14
31082;BME280;17737;52.586;13.284;2023-01-25T01:19:37;103308.25;;;1.22;78.81
31082;BME280;17737;52.586;13.284;2023-01-25T01:22:05;103304.91;;;1.15;79.32
31082;BME280;17737;52.586;13.284;2023-01-25T01:24:35;103305.50;;;1.25;79.20
31082;BME280;17737;52.586;13.284;2023-01-25T01:27:03;103306.28;;;1.29;78.60
31082;BME280;17737;52.586;13.284;2023-01-25T01:29:31;103298.50;;;1.23;78.74
31082;BME280;17737;52.586;13.284;2023-01-25T01:31:59;103293.81;;;1.31;78.51
31082;BME280;17737;52.586;13.284;2023-01-25T01:34:27;103298.94;;;1.64;77.23
31082;BME280;17737;52.586;13.284;2023-01-25T01:36:55;103296.06;;;1.44;77.69
31082;BME280;17737;52.586;13.284;2023-01-25T01:39:23;103288.56;;;1.29;78.49
31082;BME280;17737;52.586;13.284;2023-01-25T01:41:52;103291.22;;;1.29;78.74
31082;BME280;17737;52.586;13.284;2023-01-25T01:44:43;103286.13;;;1.21;79.23
31082;BME280;17737;52.586;13.284;2023-01-25T01:47:16;103280.72;;;1.24;78.98
31082;BME280;17737;52.586;13.284;2023-01-25T01:49:52;103278.88;;;1.27;78.64
31082;BME280;17737;52.586;13.284;2023-01-25T01:52:27;103284.31;;;1.23;79.19
31082;BME280;17737;52.586;13.284;2023-01-25T01:55:02;103291.28;;;1.26;79.44
31082;BME280;17737;52.586;13.284;2023-01-25T01:57:40;103282.28;;;1.32;78.88
31082;BME280;17737;52.586;13.284;2023-01-25T02:00:13;103280.78;;;1.23;79.34
31082;BME280;17737;52.586;13.284;2023-01-25T02:02:48;103278.28;;;1.46;78.42
31082;BME280;17737;52.586;13.284;2023-01-25T02:05:21;103275.47;;;1.51;78.08
31082;BME280;17737;52.586;13.284;2023-01-25T02:07:54;103276.41;;;1.76;77.00
31082;BME280;17737;52.586;13.284;2023-01-25T02:10:26;103274.31;;;1.59;77.14
31082;BME280;17737;52.586;13.284;2023-01-25T02:12:57;103275.34;;;1.81;76.46
31082;BME280;17737;52.586;13.284;2023-01-25T02:15:28;103277.41;;;1.46;77.46
31082;BME280;17737;52.586;13.284;2023-01-25T02:18:00;103275.84;;;1.39;78.14
31082;BME280;17737;52.586;13.284;2023-01-25T02:20:34;103267.84;;;1.40;78.56
31082;BME280;17737;52.586;13.284;2023-01-25T02:23:11;103265.44;;;1.33;78.18
31082;BME280;17737;52.586;13.284;2023-01-25T02:25:50;103264.34;;;1.40;78.13
31082;BME280;17737;52.586;13.284;2023-01-25T02:28:19;103258.13;;;1.65;77.55
31082;BME280;17737;52.586;13.284;2023-01-25T02:30:51;103258.25;;;1.62;77.35
31082;BME280;17737;52.586;13.284;2023-01-25T02:33:22;103258.25;;;1.36;77.84
31082;BME280;17737;52.586;13.284;2023-01-25T02:35:53;103252.63;;;1.17;79.11
31082;BME280;17737;52.586;13.284;2023-01-25T02:38:28;103256.44;;;1.37;79.11
31082;BME280;17737;52.586;13.284;2023-01-25T02:41:07;103256.75;;;1.26;79.48
31082;BME280;17737;52.586;13.284;2023-01-25T02:43:40;103264.63;;;1.31;78.91
31082;BME280;17737;52.586;13.284;2023-01-25T02:46:12;103261.69;;;1.38;79.13
31082;BME280;17737;52.586;13.284;2023-01-25T02:48:42;103256.94;;;1.21;79.35
31082;BME280;17737;52.586;13.284;2023-01-25T02:51:11;103255.59;;;1.36;79.18
31082;BME280;17737;52.586;13.284;2023-01-25T02:53:39;103248.28;;;1.69;78.29
31082;BME280;17737;52.586;13.284;2023-01-25T02:56:09;103253.88;;;1.61;78.33
31082;BME280;17737;52.586;13.284;2023-01-25T02:58:37;103253.03;;;1.59;77.96
31082;BME280;17737;52.586;13.284;2023-01-25T03:01:05;103242.63;;;1.53;78.24
31082;BME280;17737;52.586;13.284;2023-01-25T03:03:33;103243.88;;;1.42;78.58
31082;BME280;17737;52.586;13.284;2023-01-25T03:06:01;103238.38;;;1.48;78.66
31082;BME280;17737;52.586;13.284;2023-01-25T03:08:29;103240.88;;;1.52;78.67
31082;BME280;17737;52.586;13.284;2023-01-25T03:10:59;103238.16;;;1.28;79.48
31082;BME280;17737;52.586;13.284;2023-01-25T03:13:30;103245.34;;;1.24;79.84
31082;BME280;17737;52.586;13.284;2023-01-25T03:16:01;103239.84;;;1.30;79.77
31082;BME280;17737;52.586;13.284;2023-01-25T03:18:30;103237.50;;;1.19;79.68
31082;BME280;17737;52.586;13.284;2023-01-25T03:21:04;103229.25;;;1.29;79.51
31082;BME280;17737;52.586;13.284;2023-01-25T03:23:33;103228.38;;;1.28;79.85
31082;BME280;17737;52.586;13.284;2023-01-25T03:26:08;103223.78;;;1.33;79.59
31082;BME280;17737;52.586;13.284;2023-01-25T03:28:40;103228.03;;;1.39;79.61
31082;BME280;17737;52.586;13.284;2023-01-25T03:31:10;103226.22;;;1.41;79.03
31082;BME280;17737;52.586;13.284;2023-01-25T03:33:40;103215.47;;;1.44;79.29
31082;BME280;17737;52.586;13.284;2023-01-25T03:36:09;103217.19;;;1.46;79.29
31082;BME280;17737;52.586;13.284;2023-01-25T03:38:38;103217.78;;;1.54;78.83
31082;BME280;17737;52.586;13.284;2023-01-25T03:41:07;103219.78;;;1.48;78.73
31082;BME280;17737;52.586;13.284;2023-01-25T03:43:35;103217.78;;;1.54;78.27
31082;BME280;17737;52.586;13.284;2023-01-25T03:46:04;103222.28;;;1.52;78.53
31082;BME280;17737;52.586;13.284;2023-01-25T03:48:32;103219.06;;;1.43;78.70
31082;BME280;17737;52.586;13.284;2023-01-25T03:51:00;103208.50;;;1.41;78.89
31082;BME280;17737;52.586;13.284;2023-01-25T03:53:29;103204.81;;;1.45;78.53
31082;BME280;17737;52.586;13.284;2023-01-25T03:55:58;103198.41;;;1.24;79.62
31082;BME280;17737;52.586;13.284;2023-01-25T03:58:29;103193.63;;;1.36;79.48
31082;BME280;17737;52.586;13.284;2023-01-25T04:00:59;103180.91;;;1.45;79.11
31082;BME280;17737;52.586;13.284;2023-01-25T04:03:29;103186.31;;;1.42;78.83
31082;BME280;17737;52.586;13.284;2023-01-25T04:05:59;103183.81;;;1.38;79.38
31082;BME280;17737;52.586;13.284;2023-01-25T04:08:30;103180.44;;;1.33;79.51
31082;BME280;17737;52.586;13.284;2023-01-25T04:11:00;103169.72;;;1.36;79.57
31082;BME280;17737;52.586;13.284;2023-01-25T04:13:31;103173.81;;;1.46;79.74
31082;BME280;17737;52.586;13.284;2023-01-25T04:16:00;103158.97;;;1.65;78.78
31082;BME280;17737;52.586;13.284;2023-01-25T04:18:30;103163.66;;;1.58;78.71
31082;BME280;17737;52.586;13.284;2023-01-25T04:20:58;103156.84;;;1.50;78.79
31082;BME280;17737;52.586;13.284;2023-01-25T04:23:26;103152.78;;;1.38;79.22
31082;BME280;17737;52.586;13.284;2023-01-25T04:25:56;103149.03;;;1.45;79.08
31082;BME280;17737;52.586;13.284;2023-01-25T04:28:26;103149.78;;;1.49;79.11
31082;BME280;17737;52.586;13.284;2023-01-25T04:30:56;103148.19;;;1.45;79.43
31082;BME280;17737;52.586;13.284;2023-01-25T04:33:25;103142.88;;;1.45;79.27
31082;BME280;17737;52.586;13.284;2023-01-25T04:35:55;103143.88;;;1.41;79.69
31082;BME280;17737;52.586;13.284;2023-01-25T04:38:23;103137.56;;;1.45;79.70
31082;BME280;17737;52.586;13.284;2023-01-25T04:40:51;103137.63;;;1.42;79.78
31082;BME280;17737;52.586;13.284;2023-01-25T04:43:19;103133.84;;;1.49;79.54
31082;BME280;17737;52.586;13.284;2023-01-25T04:45:48;103132.88;;;1.51;79.17
31082;BME280;17737;52.586;13.284;2023-01-25T04:48:16;103128.66;;;1.46;79.68
31082;BME280;17737;52.586;13.284;2023-01-25T04:50:45;103125.81;;;1.50;79.47
31082;BME280;17737;52.586;13.284;2023-01-25T04:53:14;103122.31;;;1.50;nan
31082;BME280;17737;52.586;13.284;2023-01-25T04:55:44;103112.94;;;1.40;79.75
31082;BME280;17737;52.586;13.284;2023-01-25T04:58:13;103116.38;;;1.42;80.18
31082;BME280;17737;52.586;13.284;2023-01-25T05:00:41;103113.59;;;1.46;80.07
31082;BME280;17737;52.586;13.284;2023-01-25T05:03:09;103120.97;;;1.37;79.98
31082;BME280;17737;52.586;13.284;2023-01-25T05:05:37;103112.41;;;1.29;80.38
31082;BME280;17737;52.586;13.284;2023-01-25T05:08:05;103109.50;;;1.36;80.28
31082;BME280;17737;52.586;13.284;2023-01-25T05:10:35;103112.25;;;1.33;80.37
31082;BME280;17737;52.586;13.284;2023-01-25T05:13:02;103105.47;;;1.24;80.50
31082;BME280;17737;52.586;13.284;2023-01-25T05:15:31;103105.09;;;1.35;80.18
31082;BME280;17737;52.586;13.284;2023-01-25T05:17:59;103100.84;;;1.31;80.24
31082;BME280;17737;52.586;13.284;2023-01-25T05:20:27;103106.09;;;1.33;80.32
31082;BME280;17737;52.586;13.284;2023-01-25T05:22:56;103099.91;;;1.32;80.92
31082;BME280;17737;52.586;13.284;2023-01-25T05:25:24;103103.50;;;1.31;80.47
31082;BME280;17737;52.586;13.284;2023-01-25T05:28:11;103100.66;;;1.36;80.73
31082;BME280;17737;52.586;13.284;2023-01-25T05:30:39;103094.59;;;1.32;80.65
31082;BME280;17737;52.586;13.284;2023-01-25T05:33:07;103098.88;;;1.36;80.82
31082;BME280;17737;52.586;13.284;2023-01-25T05:35:35;103099.97;;;1.31;81.20
31082;BME280;17737;52.586;13.284;2023-01-25T05:38:03;103095.84;;;1.47;80.86
31082;BME280;17737;52.586;13.284;2023-01-25T05:40:31;103099.59;;;1.41;81.07
31082;BME280;17737;52.586;13.284;2023-01-25T05:42:59;103100.66;;;1.36;80.98
31082;BME280;17737;52.586;13.284;2023-01-25T05:45:29;103100.09;;;1.26;81.62
31082;BME280;17737;52.586;13.284;2023-01-25T05:47:58;103105.22;;;1.32;81.92
31082;BME280;17737;52.586;13.284;2023-01-25T05:50:26;103102.19;;;1.43;81.42
31082;BME280;17737;52.586;13.284;2023-01-25T05:52:54;103102.91;;;1.48;80.65
31082;BME280;17737;52.586;13.284;2023-01-25T05:55:22;103100.38;;;1.43;81.15
31082;BME280;17737;52.586;13.284;2023-01-25T05:57:50;103086.25;;;1.43;80.96
31082;BME280;17737;52.586;13.284;2023-01-25T06:00:22;103083.44;;;1.47;81.65
31082;BME280;17737;52.586;13.284;2023-01-25T06:02:51;103080.34;;;1.59;80.94
31082;BME280;17737;52.586;13.284;2023-01-25T06:05:22;103078.75;;;1.54;80.85
31082;BME280;17737;52.586;13.284;2023-01-25T06:07:50;103083.44;;;1.47;81.27
31082;BME280;17737;52.586;13.284;2023-01-25T06:10:18;103079.97;;;1.45;81.23
31082;BME280;17737;52.586;13.284;2023-01-25T06:12:46;103076.28;;;1.49;81.16
31082;BME280;17737;52.586;13.284;2023-01-25T06:15:14;103079.81;;;1.50;80.65
31082;BME280;17737;52.586;13.284;2023-01-25T06:17:42;103076.47;;;1.45;81.14
31082;BME280;17737;52.586;13.284;2023-01-25T06:20:12;103062.34;;;1.43;81.57
31082;BME280;17737;52.586;13.284;2023-01-25T06:22:40;103072.22;;;1.39;81.98
31082;BME280;17737;52.586;13.284;2023-01-25T06:25:08;103064.78;;;1.49;81.61
31082;BME280;17737;52.586;13.284;2023-01-25T06:27:37;103078.19;;;1.46;81.50
31082;BME280;17737;52.586;13.284;2023-01-25T06:30:05;103081.84;;;1.42;81.78
31082;BME280;17737;52.586;13.284;2023-01-25T06:32:34;103078.28;;;1.43;81.95
31082;BME280;17737;52.586;13.284;2023-01-25T06:35:03;103085.16;;;1.73;81.03
31082;BME280;17737;52.586;13.284;2023-01-25T06:37:33;103069.28;;;1.47;81.76
31082;BME280;17737;52.586;13.284;2023-01-25T06:40:01;103070.16;;;1.47;82.33
31082;BME280;17737;52.586;13.284;2023-01-25T06:42:29;103070.16;;;1.47;82.29
31082;BME280;17737;52.586;13.284;2023-01-25T06:44:57;103068.91;;;1.57;81.87
31082;BME280;17737;52.586;13.284;2023-01-25T06:47:25;103061.75;;;1.59;81.62
31082;BME280;17737;52.586;13.284;2023-01-25T06:49:53;103065.41;;;1.55;82.05
31082;BME280;17737;52.586;13.284;2023-01-25T06:52:21;103050.63;;;1.48;82.36
31082;BME280;17737;52.586;13.284;2023-01-25T06:54:50;103049.66;;;1.51;82.33
31082;BME280;17737;52.586;13.284;2023-01-25T06:57:18;103047.00;;;1.51;82.63
31082;BME280;17737;52.586;13.284;2023-01-25T06:59:46;103044.59;;;1.43;82.62
31082;BME280;17737;52.586;13.284;2023-01-25T07:02:14;103042.56;;;1.51;82.15
31082;BME280;17737;52.586;13.284;2023-01-25T07:04:42;103036.00;;;1.61;82.03
31082;BME280;17737;52.586;13.284;2023-01-25T07:07:10;103043.97;;;1.61;82.75
31082;BME280;17737;52.586;13.284;2023-01-25T07:09:38;103040.59;;;1.56;82.03
31082;BME280;17737;52.586;13.284;2023-01-25T07:12:08;103036.06;;;1.60;82.29
31082;BME280;17737;52.586;13.284;2023-01-25T07:14:36;103033.47;;;1.58;82.29
31082;BME280;17737;52.586;13.284;2023-01-25T07:17:07;103034.22;;;1.62;82.43
31082;BME280;17737;52.586;13.284;2023-01-25T07:19:35;103026.28;;;1.60;82.37
31082;BME280;17737;52.586;13.284;2023-01-25T07:22:03;103023.66;;;1.59;82.55
31082;BME280;17737;52.586;13.284;2023-01-25T07:24:31;103027.97;;;1.63;82.76
31082;BME280;17737;52.586;13.284;2023-01-25T07:26:59;103020.94;;;1.62;82.18
31082;BME280;17737;52.586;13.284;2023-01-25T07:29:28;103020.75;;;1.66;82.23
31082;BME280;17737;52.586;13.284;2023-01-25T07:31:56;103021.63;;;1.67;81.88
31082;BME280;17737;52.586;13.284;2023-01-25T07:34:24;103004.06;;;1.63;82.44
31082;BME280;17737;52.586;13.284;2023-01-25T07:36:54;103016.53;;;1.61;81.90
31082;BME280;17737;52.586;13.284;2023-01-25T07:39:22;103015.88;;;1.54;82.40
31082;BME280;17737;52.586;13.284;2023-01-25T07:41:50;103020.19;;;1.57;82.70
31082;BME280;17737;52.586;13.284;2023-01-25T07:44:18;103018.34;;;1.59;82.59
31082;BME280;17737;52.586;13.284;2023-01-25T07:46:47;103016.75;;;1.55;83.08
31082;BME280;17737;52.586;13.284;2023-01-25T07:49:15;103002.34;;;1.62;82.83
31082;BME280;17737;52.586;13.284;2023-01-25T07:51:43;103002.41;;;1.59;82.62
31082;BME280;17737;52.586;13.284;2023-01-25T07:54:11;103005.50;;;1.71;82.25
31082;BME280;17737;52.586;13.284;2023-01-25T07:56:39;102998.94;;;1.57;82.91
31082;BME280;17737;52.586;13.284;2023-01-25T07:59:08;102998.78;;;1.61;82.76
31082;BME280;17737;52.586;13.284;2023-01-25T08:01:37;102998.94;;;1.57;83.03
31082;BME280;17737;52.586;13.284;2023-01-25T08:04:08;102988.06;;;1.64;82.67
31082;BME280;17737;52.586;13.284;2023-01-25T08:06:36;102986.59;;;1.56;82.69
31082;BME280;17737;52.586;13.284;2023-01-25T08:09:07;102986.59;;;1.56;83.22
31082;BME280;17737;52.586;13.284;2023-01-25T08:11:38;102983.63;;;1.65;82.27
31082;BME280;17737;52.586;13.284;2023-01-25T08:14:07;102977.34;;;1.66;82.14
31082;BME280;17737;52.586;13.284;2023-01-25T08:16:36;102973.88;;;1.64;82.29
31082;BME280;17737;52.586;13.284;2023-01-25T08:19:04;102975.84;;;1.59;82.54
31082;BME280;17737;52.586;13.284;2023-01-25T08:21:34;102982.22;;;1.55;82.85
31082;BME280;17737;52.586;13.284;2023-01-25T08:24:05;102977.81;;;1.54;82.63
31082;BME280;17737;52.586;13.284;2023-01-25T08:26:35;102978.75;;;1.53;82.71
31082;BME280;17737;52.586;13.284;2023-01-25T08:29:04;102973.25;;;1.57;82.61
31082;BME280;17737;52.586;13.284;2023-01-25T08:31:34;102976.34;;;1.70;82.42
31082;BME280;17737;52.586;13.284;2023-01-25T08:34:03;102971.97;;;1.67;82.84
31082;BME280;17737;52.586;13.284;2023-01-25T08:36:33;102970.94;;;1.48;83.17
31082;BME280;17737;52.586;13.284;2023-01-25T08:39:04;102972.38;;;1.57;83.37
31082;BME280;17737;52.586;13.284;2023-01-25T08:41:34;102967.38;;;1.49;83.69
31082;BME280;17737;52.586;13.284;2023-01-25T08:44:03;102963.72;;;1.52;83.62
31082;BME280;17737;52.586;13.284;2023-01-25T08:46:32;102967.88;;;1.59;83.56
31082;BME280;17737;52.586;13.284;2023-01-25T08:49:01;102961.59;;;1.61;83.49
31082;BME280;17737;52.586;13.284;2023-01-25T08:51:30;102969.16;;;1.49;83.46
31082;BME280;17737;52.586;13.284;2023-01-25T08:54:05;102963.63;;;1.55;83.75
31082;BME280;17737;52.586;13.284;2023-01-25T08:56:35;102965.78;;;1.44;83.65
31082;BME280;17737;52.586;13.284;2023-01-25T08:59:04;102968.44;;;1.20;84.92
31082;BME280;17737;52.586;13.284;2023-01-25T09:01:33;102962.88;;;1.27;84.89
31082;BME280;17737;52.586;13.284;2023-01-25T09:04:01;102967.22;;;1.29;85.00
31082;BME280;17737;52.586;13.284;2023-01-25T09:06:29;102962.56;;;1.36;84.57
31082;BME280;17737;52.586;13.284;2023-01-25T09:08:57;102965.78;;;1.20;85.29
31082;BME280;17737;52.586;13.284;2023-01-25T09:11:27;102964.72;;;1.24;85.48
31082;BME280;17737;52.586;13.284;2023-01-25T09:13:55;102971.09;;;1.44;85.31
31082;BME280;17737;52.586;13.284;2023-01-25T09:16:24;102969.28;;;1.46;84.79
31082;BME280;17737;52.586;13.284;2023-01-25T09:18:57;102969.38;;;1.43;84.96
31082;BME280;17737;52.586;13.284;2023-01-25T09:21:27;102966.09;;;1.36;85.48
31082;BME280;17737;52.586;13.284;2023-01-25T09:23:56;102965.47;;;1.28;85.36
31082;BME280;17737;52.586;13.284;2023-01-25T09:26:36;102957.69;;;1.23;85.52
31082;BME280;17737;52.586;13.284;2023-01-25T09:29:07;102953.34;;;1.21;86.39
31082;BME280;17737;52.586;13.284;2023-01-25T09:31:38;102953.66;;;1.37;86.07
31082;BME280;17737;52.586;13.284;2023-01-25T09:34:09;102950.56;;;1.49;85.47
31082;BME280;17737;52.586;13.284;2023-01-25T09:36:37;102952.56;;;1.42;85.59
31082;BME280;17737;52.586;13.284;2023-01-25T09:39:06;102940.16;;;1.43;85.28
31082;BME280;17737;52.586;13.284;2023-01-25T09:42:11;102951.25;;;1.54;84.96
31082;BME280;17737;52.586;13.284;2023-01-25T09:45:04;102933.47;;;1.33;85.43
31082;BME280;17737;52.586;13.284;2023-01-25T09:47:44;102936.78;;;1.14;86.16
31082;BME280;17737;52.586;13.284;2023-01-25T09:50:32;102941.13;;;1.17;85.79
31082;BME280;17737;52.586;13.284;2023-01-25T09:53:18;102930.50;;;1.17;86.28
31082;BME280;17737;52.586;13.284;2023-01-25T09:55:51;102927.91;;;1.15;86.46
31082;BME280;17737;52.586;13.284;2023-01-25T09:58:27;102922.31;;;1.23;86.50
31082;BME280;17737;52.586;13.284;2023-01-25T10:01:08;102920.13;;;1.34;85.60
31082;BME280;17737;52.586;13.284;2023-01-25T10:03:54;102921.66;;;1.16;86.54
31082;BME280;17737;52.586;13.284;2023-01-25T10:06:34;102911.28;;;1.34;85.82
31082;BME280;17737;52.586;13.284;2023-01-25T10:09:19;102913.69;;;1.16;86.27
31082;BME280;17737;52.586;13.284;2023-01-25T10:11:53;102899.50;;;1.17;86.29
31082;BME280;17737;52.586;13.284;2023-01-25T10:14:23;102907.94;;;1.29;86.11
31082;BME280;17737;52.586;13.284;2023-01-25T10:17:03;102908.91;;;1.26;86.12
31082;BME280;17737;52.586;13.284;2023-01-25T10:19:48;102915.97;;;1.27;86.46
31082;BME280;17737;52.586;13.284;2023-01-25T10:22:35;102908.06;;;1.26;86.33
31082;BME280;17737;52.586;13.284;2023-01-25T10:25:28;102899.00;;;1.31;86.05
31082;BME280;17737;52.586;13.284;2023-01-25T10:28:12;102899.16;;;1.27;86.13
31082;BME280;17737;52.586;13.284;2023-01-25T10:30:54;102885.94;;;1.25;86.37
31082;BME280;17737;52.586;13.284;2023-01-25T10:33:25;102884.59;;;1.37;86.11
31082;BME280;17737;52.586;13.284;2023-01-25T10:35:56;102870.69;;;1.30;86.02
31082;BME280;17737;52.586;13.284;2023-01-25T10:38:31;102875.75;;;1.38;86.29
31082;BME280;17737;52.586;13.284;2023-01-25T10:41:05;102875.31;;;1.25;86.56
31082;BME280;17737;52.586;13.284;2023-01-25T10:43:37;102875.81;;;1.35;86.41
31082;BME280;17737;52.586;13.284;2023-01-25T10:46:16;102868.38;;;1.21;86.03
31082;BME280;17737;52.586;13.284;2023-01-25T10:48:48;102855.63;;;1.07;87.04
31082;BME280;17737;52.586;13.284;2023-01-25T10:51:30;102864.97;;;0.94;87.40
31082;BME280;17737;52.586;13.284;2023-01-25T10:54:01;102870.22;;;0.96;87.57
31082;BME280;17737;52.586;13.284;2023-01-25T10:56:32;102860.91;;;1.09;87.79
31082;BME280;17737;52.586;13.284;2023-01-25T10:59:12;102852.94;;;1.09;87.60
31082;BME280;17737;52.586;13.284;2023-01-25T11:01:45;102846.50;;;1.14;87.57
31082;BME280;17737;52.586;13.284;2023-01-25T11:04:30;102849.28;;;1.35;86.69
31082;BME280;17737;52.586;13.284;2023-01-25T11:07:01;102835.50;;;1.25;87.01
31082;BME280;17737;52.586;13.284;2023-01-25T11:09:34;102833.47;;;1.32;87.05
31082;BME280;17737;52.586;13.284;2023-01-25T11:12:14;102825.28;;;1.14;87.44
31082;BME280;17737;52.586;13.284;2023-01-25T11:14:46;102828.41;;;1.26;87.14
31082;BME280;17737;52.586;13.284;2023-01-25T11:17:29;102818.53;;;1.29;86.70
31082;BME280;17737;52.586;13.284;2023-01-25T11:20:18;102827.19;;;1.34;86.56
31082;BME280;17737;52.586;13.284;2023-01-25T11:22:49;102815.56;;;1.37;86.56
31082;BME280;17737;52.586;13.284;2023-01-25T11:25:25;102808.47;;;1.37;86.93
31082;BME280;17737;52.586;13.284;2023-01-25T11:28:15;102805.16;;;1.09;87.52
31082;BME280;17737;52.586;13.284;2023-01-25T11:30:46;102786.88;;;1.23;87.47
31082;BME280;17737;52.586;13.284;2023-01-25T11:33:18;102797.00;;;1.13;87.59
31082;BME280;17737;52.586;13.284;2023-01-25T11:36:09;102787.13;;;1.17;87.49
31082;BME280;17737;52.586;13.284;2023-01-25T11:38:56;102781.91;;;1.15;87.01
31082;BME280;17737;52.586;13.284;2023-01-25T11:41:40;102767.25;;;1.05;87.55
31082;BME280;17737;52.586;13.284;2023-01-25T11:44:39;102760.25;;;1.03;87.63
31082;BME280;17737;52.586;13.284;2023-01-25T11:47:27;102760.19;;;1.04;87.88
31082;BME280;17737;52.586;13.284;2023-01-25T11:50:13;102751.31;;;1.05;87.67
31082;BME280;17737;52.586;13.284;2023-01-25T11:52:59;102749.09;;;1.16;87.45
31082;BME280;17737;52.586;13.284;2023-01-25T11:55:46;102743.31;;;1.29;87.20
31082;BME280;17737;52.586;13.284;2023-01-25T11:58:33;102736.50;;;1.21;87.21
31082;BME280;17737;52.586;13.284;2023-01-25T12:01:14;102733.38;;;1.34;87.04
31082;BME280;17737;52.586;13.284;2023-01-25T12:07:15;102718.38;;;1.33;86.93
31082;BME280;17737;52.586;13.284;2023-01-25T12:09:58;102711.00;;;1.17;87.73
31082;BME280;17737;52.586;13.284;2023-01-25T12:12:45;102707.47;;;1.39;87.47
31082;BME280;17737;52.586;13.284;2023-01-25T12:15:41;102691.31;;;1.23;87.57
31082;BME280;17737;52.586;13.284;2023-01-25T12:18:48;102688.72;;;1.21;87.91
31082;BME280;17737;52.586;13.284;2023-01-25T12:21:42;102679.56;;;1.29;87.67
31082;BME280;17737;52.586;13.284;2023-01-25T12:24:42;102675.25;;;1.26;87.50
31082;BME280;17737;52.586;13.284;2023-01-25T12:27:29;102672.59;;;1.26;87.94
31082;BME280;17737;52.586;13.284;2023-01-25T12:30:13;102663.66;;;1.29;87.95
31082;BME280;17737;52.586;13.284;2023-01-25T12:32:49;102664.31;;;1.34;87.82
31082;BME280;17737;52.586;13.284;2023-01-25T12:35:41;102661.13;;;1.26;87.96
31082;BME280;17737;52.586;13.284;2023-01-25T12:38:16;102652.97;;;1.08;88.12
31082;BME280;17737;52.586;13.284;2023-01-25T12:40:52;102650.81;;;1.18;87.68
31082;BME280;17737;52.586;13.284;2023-01-25T12:43:29;102645.31;;;1.01;88.17
31082;BME280;17737;52.586;13.284;2023-01-25T12:46:08;102649.94;;;0.96;88.21
31082;BME280;17737;52.586;13.284;2023-01-25T12:48:43;102648.16;;;0.96;88.23
31082;BME280;17737;52.586;13.284;2023-01-25T12:51:20;102636.81;;;0.93;88.61
31082;BME280;17737;52.586;13.284;2023-01-25T12:53:51;102645.38;;;0.99;88.37
31082;BME280;17737;52.586;13.284;2023-01-25T12:56:30;102638.66;;;0.91;88.93
31082;BME280;17737;52.586;13.284;2023-01-25T12:59:13;102636.00;;;0.91;88.70
31082;BME280;17737;52.586;13.284;2023-01-25T13:01:52;102626.38;;;0.88;89.29
31082;BME280;17737;52.586;13.284;2023-01-25T13:04:46;102629.22;;;1.05;88.46
31082;BME280;17737;52.586;13.284;2023-01-25T13:07:29;102625.44;;;0.89;88.96
31082;BME280;17737;52.586;13.284;2023-01-25T13:10:11;102623.59;;;0.70;89.19
31082;BME280;17737;52.586;13.284;2023-01-25T13:12:51;102624.50;;;0.90;88.39
31082;BME280;17737;52.586;13.284;2023-01-25T13:15:34;102616.38;;;0.95;88.60
31082;BME280;17737;52.586;13.284;2023-01-25T13:18:33;102619.81;;;1.18;87.75
31082;BME280;17737;52.586;13.284;2023-01-25T13:21:07;102617.66;;;1.06;88.20
31082;BME280;17737;52.586;13.284;2023-01-25T13:23:39;102614.13;;;1.06;88.56